Time;durP1;ratioP1;P1;durP2;ratioP2;P2;SDS_P1;SDS_P2;PMS_P1;PMS_P2;Temp;Humidity;BMP_temperature;BMP_pressure;BME280_temperature;BME280_humidity;BME280_pressure;Samples;Min_cycle;Max_cycle;Signal;HPM_P1;HPM_P2
2022/05/28 00:00:08;;;;;;;6.13;2.17;;;;;;;10.75;60.79;100576.19;5043439;28;20204;-58
2022/05/28 00:02:33;;;;;;;10.13;2.40;;;;;;;10.42;61.83;100570.00;5067592;28;20625;-58
2022/05/28 00:04:58;;;;;;;10.73;2.13;;;;;;;10.44;62.11;100560.47;5051577;28;20524;-58
2022/05/28 00:07:24;;;;;;;3.90;1.90;;;;;;;10.34;63.01;100566.91;5052403;28;20181;-59
2022/05/28 00:09:49;;;;;;;7.30;2.07;;;;;;;10.30;62.13;100560.25;5047663;28;20675;-60
2022/05/28 00:12:15;;;;;;;8.20;2.23;;;;;;;10.38;61.97;100555.63;5063147;28;20687;-59
2022/05/28 00:14:40;;;;;;;7.63;2.87;;;;;;;10.29;62.32;100561.13;5049217;28;20174;-58
2022/05/28 00:17:05;;;;;;;8.37;2.00;;;;;;;10.25;62.93;100554.47;5052162;28;20177;-59
2022/05/28 00:19:31;;;;;;;5.13;1.63;;;;;;;10.39;60.75;100557.25;5052266;28;20225;-58
2022/05/28 00:21:56;;;;;;;5.77;1.60;;;;;;;10.38;61.08;100554.78;5056186;28;20244;-59
2022/05/28 00:24:21;;;;;;;4.83;1.50;;;;;;;10.40;60.62;100558.94;5053569;28;20170;-59
2022/05/28 00:26:47;;;;;;;5.57;1.97;;;;;;;10.17;62.24;100557.38;5051866;28;20276;-58
2022/05/28 00:29:12;;;;;;;5.27;1.67;;;;;;;10.20;61.71;100549.53;5052617;28;20165;-58
2022/05/28 00:31:38;;;;;;;7.70;1.70;;;;;;;10.11;62.91;100550.81;5054207;28;20232;-59
2022/05/28 00:34:03;;;;;;;6.90;2.10;;;;;;;10.06;63.43;100557.88;5067901;28;20180;-58
2022/05/28 00:36:29;;;;;;;5.73;1.50;;;;;;;10.00;63.46;100553.03;5051975;28;20178;-58
2022/05/28 00:38:54;;;;;;;8.13;2.43;;;;;;;9.96;63.70;100547.19;5052367;28;20181;-59
2022/05/28 00:41:20;;;;;;;5.27;1.50;;;;;;;9.74;64.94;100543.91;5052031;28;20232;-59
2022/05/28 00:43:45;;;;;;;5.43;1.50;;;;;;;9.71;64.97;100538.88;5057284;28;20193;-58
2022/05/28 00:46:16;;;;;;;5.53;1.73;;;;;;;9.62;66.10;100540.94;5051542;28;20193;-58
2022/05/28 00:48:46;;;;;;;4.30;1.57;;;;;;;9.72;65.23;100546.53;5050721;28;20181;-57
2022/05/28 00:51:20;;;;;;;4.93;2.20;;;;;;;9.74;65.13;100539.59;5050782;28;20582;-58
2022/05/28 00:53:45;;;;;;;4.00;1.50;;;;;;;9.82;65.28;100542.66;5050696;28;20191;-58
2022/05/28 00:56:11;;;;;;;5.47;1.67;;;;;;;9.82;65.76;100537.53;5051684;28;20251;-58
2022/05/28 00:58:37;;;;;;;6.43;1.97;;;;;;;9.72;66.03;100538.81;5051973;28;20181;-58
2022/05/28 01:01:06;;;;;;;7.33;1.90;;;;;;;9.61;67.31;100541.03;5043581;28;20348;-58
2022/05/28 01:03:31;;;;;;;8.97;1.77;;;;;;;9.62;67.07;100537.56;5050247;28;20612;-58
2022/05/28 01:06:11;;;;;;;8.03;2.13;;;;;;;9.69;66.54;100538.97;5051727;28;20181;-60
2022/05/28 01:08:42;;;;;;;7.10;1.87;;;;;;;9.65;66.85;100540.84;5039232;28;20185;-58
2022/05/28 01:11:13;;;;;;;8.63;1.60;;;;;;;9.68;67.41;100539.88;5038630;28;20224;-59
2022/05/28 01:13:51;;;;;;;6.00;2.07;;;;;;;9.55;67.91;100551.56;5044900;28;20271;-58
2022/05/28 01:16:40;;;;;;;5.90;1.80;;;;;;;9.38;68.40;100548.00;5051311;28;20185;-59
2022/05/28 01:19:35;;;;;;;10.47;2.73;;;;;;;9.32;68.68;100545.69;5050131;28;20267;-58
2022/05/28 01:22:18;;;;;;;4.93;1.43;;;;;;;9.32;68.77;100543.13;5056463;28;20227;-59
2022/05/28 01:24:59;;;;;;;5.57;1.77;;;;;;;9.30;69.22;100534.63;5051292;28;20689;-58
2022/05/28 01:27:32;;;;;;;3.47;1.60;;;;;;;9.40;68.53;100538.47;5049378;28;20188;-61
2022/05/28 01:30:02;;;;;;;5.33;1.73;;;;;;;9.35;69.28;100537.84;5049841;28;20213;-60
2022/05/28 01:32:29;;;;;;;5.70;2.13;;;;;;;9.33;69.44;100537.91;5040226;28;20303;-58
2022/05/28 01:34:56;;;;;;;7.57;2.20;;;;;;;9.30;70.17;100532.06;5051312;28;20189;-60
2022/05/28 01:37:22;;;;;;;6.63;1.70;;;;;;;9.32;69.60;100535.41;5048350;28;20643;-59
2022/05/28 01:39:49;;;;;;;5.83;1.63;;;;;;;9.04;70.95;100528.84;5049701;28;20181;-58
2022/05/28 01:42:16;;;;;;;6.93;1.83;;;;;;;9.13;71.15;100530.19;5040893;28;20236;-59
2022/05/28 01:44:44;;;;;;;5.23;1.93;;;;;;;9.20;70.25;100529.06;5049510;28;20188;-58
2022/05/28 01:47:12;;;;;;;6.97;1.70;;;;;;;9.10;70.56;100530.34;5049386;28;20196;-58
2022/05/28 01:49:39;;;;;;;4.50;1.60;;;;;;;9.13;70.85;100533.63;5066312;28;20215;-58
2022/05/28 01:52:06;;;;;;;5.27;1.57;;;;;;;9.00;72.25;100523.00;5058700;28;20240;-60
2022/05/28 01:54:37;;;;;;;7.20;1.87;;;;;;;8.97;72.20;100522.31;5066435;28;20181;-58
2022/05/28 01:57:03;;;;;;;8.90;2.20;;;;;;;8.99;72.26;100520.50;5048993;28;20183;-59
2022/05/28 01:59:33;;;;;;;8.87;2.23;;;;;;;8.91;72.57;100531.09;5049765;28;20250;-58
2022/05/28 02:02:00;;;;;;;4.20;2.00;;;;;;;8.85;72.33;100537.28;5042456;28;20244;-58
2022/05/28 02:04:29;;;;;;;5.80;1.67;;;;;;;8.69;73.61;100531.13;5048030;28;20183;-58
2022/05/28 02:06:55;;;;;;;7.43;1.80;;;;;;;8.76;74.37;100529.13;5043602;28;20189;-59
2022/05/28 02:09:24;;;;;;;6.27;1.90;;;;;;;8.77;74.32;100528.25;5030984;28;20199;-59
2022/05/28 02:18:45;;;;;;;8.80;1.90;;;;;;;8.36;75.68;100516.13;5029562;28;20702;-58
2022/05/28 02:21:30;;;;;;;5.73;1.80;;;;;;;8.54;75.05;100523.13;5022510;28;20319;-59
2022/05/28 02:24:08;;;;;;;4.53;1.60;;;;;;;8.59;75.26;100522.13;5046257;28;20270;-59
2022/05/28 02:26:50;;;;;;;7.70;1.70;;;;;;;8.62;75.18;100520.28;5035829;28;20186;-59
2022/05/28 02:29:17;;;;;;;5.83;2.17;;;;;;;8.59;75.23;100519.56;5049584;28;20225;-59
2022/05/28 02:31:45;;;;;;;5.90;2.23;;;;;;;8.54;75.23;100517.19;5038422;28;20232;-59
2022/05/28 02:34:11;;;;;;;6.23;1.67;;;;;;;8.50;75.28;100515.63;5046972;28;20184;-59
2022/05/28 02:36:37;;;;;;;6.00;1.30;;;;;;;8.43;76.38;100511.59;5048601;28;20176;-59
2022/05/28 02:39:03;;;;;;;9.50;2.40;;;;;;;8.38;76.95;100516.91;5049461;28;20207;-58
2022/05/28 02:41:28;;;;;;;4.73;1.40;;;;;;;8.28;77.24;100505.34;5051260;28;20723;-59
2022/05/28 02:43:54;;;;;;;6.03;2.00;;;;;;;8.43;77.44;100515.00;5054855;28;20180;-59
2022/05/28 02:46:19;;;;;;;8.40;1.93;;;;;;;8.24;77.67;100513.13;5052197;28;20666;-59
2022/05/28 02:48:45;;;;;;;4.60;1.63;;;;;;;8.39;77.38;100519.41;5054365;28;20176;-59
2022/05/28 02:51:18;;;;;;;6.50;2.13;;;;;;;8.19;78.41;100506.53;5045803;28;20231;-58
2022/05/28 02:53:44;;;;;;;5.87;1.40;;;;;;;8.42;78.44;100509.94;5059866;28;20337;-59
2022/05/28 02:56:10;;;;;;;6.87;2.10;;;;;;;8.50;77.70;100516.47;5053761;28;20263;-59
2022/05/28 02:58:35;;;;;;;8.77;1.77;;;;;;;8.51;77.51;100512.19;5052934;28;20174;-59
2022/05/28 03:01:03;;;;;;;6.60;1.93;;;;;;;8.34;78.17;100505.94;5033173;28;20237;-59
2022/05/28 03:03:28;;;;;;;3.73;1.80;;;;;;;8.30;78.70;100517.22;5036109;28;20521;-59
2022/05/28 03:05:55;;;;;;;5.43;1.80;;;;;;;8.37;79.02;100516.09;5050150;28;20191;-59
2022/05/28 03:08:20;;;;;;;7.40;2.30;;;;;;;8.08;80.35;100507.75;5052383;28;20190;-59
2022/05/28 03:10:46;;;;;;;6.63;2.10;;;;;;;7.95;81.84;100508.28;5055682;28;20591;-59
2022/05/28 03:13:12;;;;;;;5.33;1.87;;;;;;;8.12;81.09;100499.97;5063002;28;20630;-58
2022/05/28 03:15:38;;;;;;;6.33;2.20;;;;;;;8.28;80.62;100503.59;5041766;28;20434;-59
2022/05/28 03:18:04;;;;;;;6.17;2.00;;;;;;;8.37;81.36;100504.97;5056996;28;20554;-67
2022/05/28 03:20:30;;;;;;;7.50;1.37;;;;;;;8.24;80.84;100510.56;5045860;28;20240;-68
2022/05/28 03:22:56;;;;;;;4.63;1.63;;;;;;;8.61;78.95;100510.06;5052502;28;20210;-66
2022/05/28 03:25:23;;;;;;;7.33;1.90;;;;;;;8.54;78.92;100509.47;5052010;28;20184;-67
2022/05/28 03:27:48;;;;;;;9.40;2.03;;;;;;;8.33;80.18;100504.25;5052633;28;20259;-67
2022/05/28 03:30:14;;;;;;;9.47;1.70;;;;;;;8.19;81.03;100503.97;5021148;28;20271;-67
2022/05/28 03:32:40;;;;;;;6.33;1.90;;;;;;;8.35;80.70;100505.03;5052113;28;20179;-67
2022/05/28 03:35:06;;;;;;;10.10;2.00;;;;;;;8.31;80.62;100498.38;5053107;28;20175;-67
2022/05/28 03:37:31;;;;;;;8.23;2.30;;;;;;;8.42;81.05;100502.25;5052978;28;20267;-67
2022/05/28 03:39:56;;;;;;;9.57;2.00;;;;;;;8.33;80.84;100503.44;5053198;28;20655;-67
2022/05/28 03:42:22;;;;;;;5.03;1.67;;;;;;;8.59;79.69;100517.81;5042145;28;20326;-67
2022/05/28 03:44:47;;;;;;;5.70;1.70;;;;;;;8.74;77.80;100515.56;5052878;28;20193;-67
2022/05/28 03:47:13;;;;;;;4.17;1.60;;;;;;;8.56;77.68;100512.84;5052624;28;20266;-68
2022/05/28 03:49:40;;;;;;;6.87;1.90;;;;;;;8.75;78.82;100514.66;5052674;28;20183;-67
2022/05/28 03:52:05;;;;;;;4.37;1.70;;;;;;;8.68;78.14;100507.22;5058175;28;20231;-67
2022/05/28 03:54:31;;;;;;;6.37;1.93;;;;;;;8.86;77.62;100504.81;5053116;28;20232;-67
2022/05/28 03:57:02;;;;;;;5.30;1.87;;;;;;;8.94;76.10;100505.28;5051354;28;20173;-67
2022/05/28 03:59:27;;;;;;;5.57;1.73;;;;;;;9.13;74.74;100507.09;5052328;28;20192;-67
2022/05/28 04:01:53;;;;;;;3.37;1.60;;;;;;;9.36;73.11;100513.84;5039339;28;20577;-67
2022/05/28 04:04:19;;;;;;;7.47;2.00;;;;;;;9.44;72.31;100513.50;5033743;28;20182;-66
2022/05/28 04:06:44;;;;;;;5.83;1.70;;;;;;;9.63;71.38;100510.97;5032216;28;20709;-66
2022/05/28 04:09:10;;;;;;;5.70;1.50;;;;;;;9.80;69.70;100515.38;5032739;28;20189;-67
2022/05/28 04:11:38;;;;;;;9.00;1.93;;;;;;;10.04;68.27;100518.56;5053383;28;20707;-66
2022/05/28 04:14:05;;;;;;;7.50;1.93;;;;;;;10.10;67.49;100512.31;5050089;28;20216;-66
2022/05/28 04:16:31;;;;;;;5.87;1.80;;;;;;;10.18;67.51;100508.50;5050566;28;20173;-67
2022/05/28 04:18:57;;;;;;;4.03;1.77;;;;;;;10.33;66.49;100508.66;5050660;28;20246;-66
2022/05/28 04:21:22;;;;;;;6.90;2.20;;;;;;;10.31;66.69;100513.06;5040415;28;20248;-66
2022/05/28 04:23:47;;;;;;;8.80;2.20;;;;;;;10.39;66.17;100510.97;5045587;28;20268;-67
2022/05/28 04:26:13;;;;;;;4.87;1.60;;;;;;;10.49;65.87;100517.38;5050931;28;20260;-67
2022/05/28 04:28:38;;;;;;;8.03;2.07;;;;;;;10.58;65.47;100516.09;5052600;28;20235;-67
2022/05/28 04:31:03;;;;;;;4.87;1.90;;;;;;;10.59;65.29;100511.78;5040342;28;20698;-67
2022/05/28 04:33:29;;;;;;;6.70;1.83;;;;;;;10.72;64.41;100509.47;5051192;28;20185;-67
2022/05/28 04:35:54;;;;;;;5.37;1.50;;;;;;;10.81;64.36;100512.38;5052232;28;20173;-66
2022/05/28 04:38:20;;;;;;;4.00;1.40;;;;;;;10.79;63.15;100509.06;5051796;28;20184;-67
2022/05/28 04:40:45;;;;;;;5.77;1.90;;;;;;;10.78;63.87;100514.31;5046983;28;20591;-66
2022/05/28 04:43:10;;;;;;;4.70;1.57;;;;;;;10.74;64.02;100511.03;5061583;28;20177;-68
2022/05/28 04:45:35;;;;;;;5.20;1.80;;;;;;;10.73;63.99;100511.94;5051689;28;20169;-67
2022/05/28 04:48:01;;;;;;;8.70;1.83;;;;;;;10.82;63.55;100514.06;5051235;28;20318;-67
2022/05/28 04:50:26;;;;;;;6.67;1.63;;;;;;;11.00;62.85;100515.81;5044749;28;20216;-66
2022/05/28 04:52:51;;;;;;;5.90;1.80;;;;;;;11.09;62.64;100521.34;5064132;28;20315;-68
2022/05/28 04:55:17;;;;;;;5.10;1.73;;;;;;;11.46;61.32;100529.78;5050241;28;20536;-67
2022/05/28 04:57:42;;;;;;;6.53;1.87;;;;;;;11.81;60.27;100521.13;5048113;28;20209;-66
2022/05/28 05:00:15;;;;;;;5.40;2.20;;;;;;;11.95;58.46;100513.47;5032935;28;20274;-66
2022/05/28 05:02:41;;;;;;;6.97;2.27;;;;;;;12.23;58.27;100518.91;5050256;28;20327;-67
2022/05/28 05:05:07;;;;;;;6.93;1.83;;;;;;;12.33;57.01;100520.06;5051607;28;20264;-67
2022/05/28 05:07:33;;;;;;;7.10;2.00;;;;;;;12.31;56.52;100523.66;5050881;28;20270;-66
2022/05/28 05:09:59;;;;;;;9.93;2.20;;;;;;;12.32;56.59;100530.47;5050782;28;20174;-66
2022/05/28 05:12:24;;;;;;;5.27;1.70;;;;;;;12.37;55.50;100529.31;5073694;28;20239;-67
2022/05/28 05:14:49;;;;;;;4.73;2.10;;;;;;;12.62;55.37;100540.84;5051539;28;20190;-67
2022/05/28 05:17:15;;;;;;;4.73;1.60;;;;;;;12.80;54.54;100538.13;5050861;28;20218;-67
2022/05/28 05:19:40;;;;;;;5.93;1.77;;;;;;;12.78;54.59;100534.81;5049447;28;20316;-67
2022/05/28 05:22:05;;;;;;;4.17;1.50;;;;;;;12.73;54.83;100535.91;5056128;28;20275;-67
2022/05/28 05:24:33;;;;;;;6.20;2.17;;;;;;;12.69;54.92;100544.75;5050090;28;20505;-68
2022/05/28 05:26:58;;;;;;;7.10;2.00;;;;;;;12.55;55.10;100549.84;5049318;28;20185;-67
2022/05/28 05:29:23;;;;;;;8.07;2.17;;;;;;;12.62;55.81;100551.16;5050963;28;20180;-68
2022/05/28 05:31:49;;;;;;;5.07;1.77;;;;;;;12.95;54.81;100552.75;5054153;28;20230;-68
2022/05/28 05:34:14;;;;;;;4.00;1.47;;;;;;;13.06;54.52;100552.13;5052921;28;20181;-68
2022/05/28 05:36:39;;;;;;;6.27;1.73;;;;;;;12.88;54.84;100549.69;5050598;28;20185;-68
2022/05/28 05:39:05;;;;;;;9.70;1.93;;;;;;;12.53;56.39;100551.69;5050884;28;20212;-67
2022/05/28 05:41:30;;;;;;;8.60;1.93;;;;;;;12.36;56.79;100553.44;5051840;28;20321;-67
2022/05/28 05:43:55;;;;;;;7.07;2.33;;;;;;;12.09;58.20;100553.19;5045997;28;20652;-67
2022/05/28 05:46:21;;;;;;;8.63;2.40;;;;;;;12.11;58.78;100551.34;5030353;28;20236;-67
2022/05/28 05:48:46;;;;;;;5.87;1.80;;;;;;;12.18;58.88;100562.16;5031416;28;20216;-66
2022/05/28 05:51:14;;;;;;;4.77;1.50;;;;;;;11.84;59.88;100558.78;5029694;28;20224;-66
2022/05/28 05:53:40;;;;;;;5.10;1.70;;;;;;;11.66;61.21;100561.41;5036970;28;20728;-67
2022/05/28 05:56:06;;;;;;;3.77;1.50;;;;;;;12.06;60.90;100554.19;5022950;28;20198;-66
2022/05/28 05:58:34;;;;;;;5.40;2.00;;;;;;;12.17;60.80;100550.19;5025902;28;20337;-67
2022/05/28 06:01:00;;;;;;;4.57;1.77;;;;;;;12.53;60.01;100554.28;5027900;28;20233;-67
2022/05/28 06:03:26;;;;;;;10.57;2.27;;;;;;;12.70;58.35;100556.72;5039077;28;20192;-67
2022/05/28 06:05:58;;;;;;;5.13;1.83;;;;;;;12.96;57.96;100548.41;5030924;28;20178;-67
2022/05/28 06:08:24;;;;;;;6.10;1.83;;;;;;;13.22;55.62;100541.72;5030801;28;20252;-68
2022/05/28 06:10:49;;;;;;;4.10;1.70;;;;;;;13.32;55.22;100545.47;5026924;28;20344;-67
2022/05/28 06:13:14;;;;;;;7.43;2.00;;;;;;;13.50;55.73;100537.56;5045816;28;20194;-68
2022/05/28 06:15:40;;;;;;;6.70;2.27;;;;;;;13.71;54.63;100532.84;5029250;28;20590;-68
2022/05/28 06:18:06;;;;;;;5.90;2.13;;;;;;;13.92;53.33;100528.13;5030098;28;20200;-67
2022/05/28 06:20:31;;;;;;;7.17;2.07;;;;;;;14.10;52.66;100538.25;5025407;28;20236;-67
2022/05/28 06:22:56;;;;;;;6.83;2.17;;;;;;;14.93;51.63;100538.13;5046510;28;20239;-67
2022/05/28 06:25:21;;;;;;;5.23;2.20;;;;;;;15.30;49.50;100532.28;5033454;28;20250;-66
2022/05/28 06:27:47;;;;;;;6.17;2.00;;;;;;;15.88;48.63;100519.69;5033972;28;20205;-66
2022/05/28 06:30:13;;;;;;;5.33;1.97;;;;;;;17.46;44.42;100523.78;5026165;28;20186;-66
2022/05/28 06:32:38;;;;;;;9.97;2.00;;;;;;;17.77;42.77;100518.78;5048457;28;20197;-66
2022/05/28 06:35:04;;;;;;;7.07;1.80;;;;;;;18.17;42.36;100517.44;5034731;28;20633;-67
2022/05/28 06:37:29;;;;;;;6.27;1.70;;;;;;;18.63;40.51;100511.13;5033967;28;20174;-67
2022/05/28 06:39:55;;;;;;;5.63;2.20;;;;;;;19.02;40.37;100511.38;5034508;28;20174;-67
2022/05/28 06:42:20;;;;;;;7.40;2.00;;;;;;;19.65;38.52;100517.44;5023004;28;20272;-68
2022/05/28 06:44:45;;;;;;;6.33;2.00;;;;;;;19.61;38.58;100516.03;5034198;28;20189;-67
2022/05/28 06:47:11;;;;;;;5.43;1.90;;;;;;;20.05;38.09;100518.41;5034321;28;20179;-67
2022/05/28 06:49:36;;;;;;;4.73;1.60;;;;;;;20.60;37.14;100517.84;5034288;28;20262;-68
2022/05/28 06:52:01;;;;;;;6.30;2.00;;;;;;;20.90;36.50;100514.28;5039527;28;20225;-67
2022/05/28 06:54:27;;;;;;;5.30;2.07;;;;;;;20.76;36.28;100515.53;5021088;28;20191;-68
2022/05/28 06:56:52;;;;;;;6.93;2.00;;;;;;;21.53;35.64;100506.75;5033896;28;20244;-68
2022/05/28 06:59:17;;;;;;;5.67;2.17;;;;;;;21.81;35.40;100512.03;5034038;28;20535;-68
2022/05/28 07:01:43;;;;;;;4.50;1.67;;;;;;;22.24;34.70;100519.16;5029282;28;20247;-68
2022/05/28 07:04:08;;;;;;;7.57;2.00;;;;;;;21.21;35.69;100519.28;5056512;28;20181;-67
2022/05/28 07:06:34;;;;;;;5.27;2.03;;;;;;;20.53;37.71;100516.75;5068441;28;20312;-68
2022/05/28 07:08:59;;;;;;;5.63;2.03;;;;;;;19.61;39.52;100521.25;5052588;28;20184;-70
2022/05/28 07:11:25;;;;;;;9.40;2.53;;;;;;;19.31;40.42;100509.88;5065664;28;20235;-70
2022/05/28 07:13:50;;;;;;;8.57;2.67;;;;;;;19.59;40.27;100516.19;5063260;28;20589;-70
2022/05/28 07:16:15;;;;;;;7.33;2.07;;;;;;;18.97;40.78;100510.13;5052211;28;20251;-70
2022/05/28 07:18:41;;;;;;;10.33;2.53;;;;;;;18.00;42.46;100513.59;5059294;28;20683;-68
2022/05/28 07:21:09;;;;;;;9.37;2.10;;;;;;;17.38;42.89;100526.16;5051255;28;20232;-69
2022/05/28 07:23:34;;;;;;;8.43;2.30;;;;;;;16.53;43.89;100519.44;5060152;28;20180;-68
2022/05/28 07:26:01;;;;;;;5.70;1.90;;;;;;;18.08;42.17;100523.41;5052926;28;20178;-66
2022/05/28 07:28:30;;;;;;;5.47;1.73;;;;;;;18.52;40.42;100525.03;5053106;28;20188;-68
2022/05/28 07:31:01;;;;;;;5.87;1.93;;;;;;;17.09;43.35;100530.03;5021982;28;20287;-68
2022/05/28 07:33:29;;;;;;;6.43;1.87;;;;;;;17.65;42.84;100527.56;5052620;28;20174;-58
2022/05/28 07:35:55;;;;;;;9.90;1.73;;;;;;;17.41;42.50;100531.09;5052072;28;20213;-58
2022/05/28 07:38:23;;;;;;;8.97;1.63;;;;;;;16.78;43.73;100532.28;5052970;28;20282;-58
2022/05/28 07:40:48;;;;;;;6.93;1.60;;;;;;;16.61;44.69;100533.50;5041213;28;20233;-58
2022/05/28 07:43:14;;;;;;;4.10;1.53;;;;;;;15.19;47.20;100532.16;5041946;28;20165;-58
2022/05/28 07:45:42;;;;;;;2.90;1.20;;;;;;;14.95;47.90;100528.50;5051936;28;20708;-59
2022/05/28 07:48:08;;;;;;;3.43;1.23;;;;;;;15.32;46.80;100522.63;5051429;28;20186;-60
2022/05/28 07:50:33;;;;;;;1.87;1.00;;;;;;;16.48;44.15;100517.16;5047464;28;20651;-58
2022/05/28 07:52:59;;;;;;;5.27;1.87;;;;;;;19.57;39.39;100505.03;5065635;28;20197;-59
2022/05/28 07:55:25;;;;;;;4.73;1.50;;;;;;;20.11;36.66;100507.41;5031602;28;20842;-59
2022/05/28 07:57:51;;;;;;;4.77;1.87;;;;;;;19.34;38.50;100507.03;5032792;28;20255;-59
2022/05/28 08:00:16;;;;;;;7.17;1.50;;;;;;;17.73;41.19;100515.59;5026235;28;20236;-59
2022/05/28 08:02:42;;;;;;;4.33;1.57;;;;;;;16.74;44.00;100510.03;5046179;28;20240;-59
2022/05/28 08:05:08;;;;;;;5.73;1.43;;;;;;;16.64;44.90;100514.28;5032937;28;20182;-59
2022/05/28 08:07:33;;;;;;;5.03;1.60;;;;;;;16.83;44.94;100526.75;5047207;28;20236;-58
2022/05/28 08:09:58;;;;;;;5.57;1.70;;;;;;;16.51;44.63;100518.69;5032569;28;20186;-58
2022/05/28 08:12:24;;;;;;;4.20;1.33;;;;;;;16.69;45.04;100526.94;5054302;28;20221;-58
2022/05/28 08:14:49;;;;;;;5.83;3.40;;;;;;;17.67;42.45;100517.88;5050388;28;20192;-58
2022/05/28 08:17:15;;;;;;;5.30;2.07;;;;;;;20.46;36.87;100511.25;5052091;28;20217;-58
2022/05/28 08:19:41;;;;;;;4.60;1.60;;;;;;;21.99;34.24;100509.41;5050803;28;20221;-59
2022/05/28 08:24:51;;;;;;;4.30;1.50;;;;;;;24.52;29.69;100513.69;5052710;28;20192;-59
2022/05/28 08:27:16;;;;;;;2.53;1.07;;;;;;;25.11;29.10;100516.88;5052005;28;20178;-58
2022/05/28 08:29:41;;;;;;;4.57;1.50;;;;;;;25.78;28.43;100514.84;5052206;28;20689;-59
2022/05/28 08:32:07;;;;;;;4.60;1.52;;;;;;;24.89;29.30;100525.50;5057605;28;20298;-58
2022/05/28 08:34:32;;;;;;;5.40;1.50;;;;;;;22.68;32.39;100525.44;5052280;28;20202;-58
2022/05/28 08:36:58;;;;;;;5.13;1.50;;;;;;;21.01;34.08;100520.28;5051534;28;20177;-60
2022/05/28 08:39:23;;;;;;;6.03;2.07;;;;;;;20.00;36.94;100527.44;5052183;28;20648;-59
2022/05/28 08:41:57;;;;;;;7.77;1.67;;;;;;;19.62;38.56;100520.31;5055372;28;20224;-58
2022/05/28 08:44:26;;;;;;;4.00;1.50;;;;;;;20.74;36.08;100521.84;5052007;28;20195;-58
2022/05/28 08:47:01;;;;;;;3.20;1.40;;;;;;;19.63;37.79;100527.19;5050104;28;20173;-58
2022/05/28 08:49:28;;;;;;;4.40;1.40;;;;;;;18.78;39.03;100516.84;5051745;28;20213;-59
2022/05/28 08:52:09;;;;;;;9.17;1.53;;;;;;;19.22;38.21;100514.09;5075190;28;20328;-58
2022/05/28 08:54:57;;;;;;;2.43;1.30;;;;;;;20.39;35.67;100502.31;5067449;28;20233;-58
2022/05/28 08:57:34;;;;;;;3.03;1.13;;;;;;;21.66;33.00;100509.06;5066827;28;20180;-59
2022/05/28 09:00:07;;;;;;;3.87;1.20;;;;;;;22.98;31.40;100507.59;5051539;28;20177;-59
2022/05/28 09:02:39;;;;;;;3.43;1.50;;;;;;;24.00;30.58;100494.56;5040534;28;20225;-58
2022/05/28 09:05:19;;;;;;;3.80;1.40;;;;;;;22.97;31.34;100501.56;5051794;28;20641;-58
2022/05/28 09:07:45;;;;;;;3.23;1.10;;;;;;;22.16;32.93;100494.69;5066358;28;20247;-58
2022/05/28 09:10:11;;;;;;;3.93;1.03;;;;;;;19.97;34.76;100508.59;5058680;28;20182;-60
2022/05/28 09:12:43;;;;;;;2.83;1.10;;;;;;;18.96;36.84;100496.25;5081356;28;20185;-59
2022/05/28 09:15:09;;;;;;;2.37;1.10;;;;;;;18.46;37.95;100489.06;5032161;28;20575;-59
2022/05/28 09:17:40;;;;;;;2.77;1.40;;;;;;;18.35;39.13;100499.53;5029753;28;20190;-60
2022/05/28 09:20:16;;;;;;;3.03;1.40;;;;;;;17.86;40.09;100486.00;5053353;28;20225;-60
2022/05/28 09:22:42;;;;;;;3.97;1.43;;;;;;;16.99;42.78;100497.84;5059628;28;20181;-59
2022/05/28 09:25:09;;;;;;;4.03;1.37;;;;;;;16.87;43.42;100496.13;5031336;28;20181;-59
2022/05/28 09:27:55;;;;;;;7.53;1.80;;;;;;;17.69;44.15;100492.56;5078279;28;20180;-59
2022/05/28 09:30:49;;;;;;;3.97;1.60;;;;;;;21.88;36.25;100490.31;5059051;28;20263;-60
2022/05/28 09:33:24;;;;;;;3.87;1.30;;;;;;;24.34;30.85;100486.56;5060966;28;20528;-59
2022/05/28 09:36:15;;;;;;;4.90;1.67;;;;;;;24.10;30.71;100484.75;5051389;28;20256;-58
2022/05/28 09:39:04;;;;;;;3.57;1.10;;;;;;;24.13;30.82;100488.88;5051368;28;20208;-59
2022/05/28 09:41:42;;;;;;;4.23;1.20;;;;;;;25.35;27.76;100491.47;5051748;28;20235;-58
2022/05/28 09:44:32;;;;;;;3.05;1.13;;;;;;;25.46;27.93;100485.03;5050046;28;20479;-58
2022/05/28 09:47:19;;;;;;;4.50;1.50;;;;;;;24.32;28.51;100490.34;5044297;28;20186;-58
2022/05/28 09:49:46;;;;;;;3.47;1.48;;;;;;;;;;5031084;28;20176;-58
2022/05/28 09:52:12;;;;;;;2.78;1.20;;;;;;;22.91;30.90;100478.56;5054944;28;20319;-58
2022/05/28 09:54:38;;;;;;;2.35;1.13;;;;;;;23.25;30.31;100469.91;5031280;28;20189;-59
2022/05/28 09:57:11;;;;;;;3.05;1.50;;;;;;;22.30;31.69;100469.75;5030896;28;20174;-58
2022/05/28 09:59:42;;;;;;;3.40;1.37;;;;;;;23.28;30.52;100464.34;5029724;28;20268;-59
2022/05/28 10:02:41;;;;;;;1.90;1.03;;;;;;;21.62;31.96;100456.19;5052708;28;20224;-60
2022/05/28 10:05:12;;;;;;;6.57;1.63;;;;;;;20.79;33.56;100470.81;5031261;28;20181;-58
2022/05/28 10:07:41;;;;;;;2.97;1.33;;;;;;;20.89;33.80;100470.78;5029068;28;20167;-58
2022/05/28 10:10:23;;;;;;;2.77;1.00;;;;;;;19.65;35.05;100460.84;5037002;28;20269;-58
2022/05/28 10:12:50;;;;;;;2.23;0.93;;;;;;;20.40;33.48;100459.56;5058068;28;20256;-59
2022/05/28 10:15:22;;;;;;;4.77;1.30;;;;;;;20.61;33.00;100456.78;5066195;28;20195;-59
2022/05/28 10:18:01;;;;;;;1.57;0.90;;;;;;;20.08;34.47;100452.81;5048981;28;20531;-59
2022/05/28 10:20:27;;;;;;;3.13;1.30;;;;;;;19.39;35.44;100459.66;5043323;28;20235;-59
2022/05/28 10:22:56;;;;;;;2.27;1.10;;;;;;;19.09;35.77;100456.13;5066264;28;20189;-58
2022/05/28 10:25:49;;;;;;;8.17;1.33;;;;;;;19.27;35.41;100438.91;5049399;28;20189;-59
2022/05/28 10:28:28;;;;;;;2.20;1.17;;;;;;;20.08;34.57;100434.53;5030557;28;20221;-59
2022/05/28 10:30:55;;;;;;;2.23;0.93;;;;;;;21.37;31.75;100439.34;5029888;28;20350;-60
2022/05/28 10:33:24;;;;;;;2.87;1.33;;;;;;;20.15;33.15;100440.88;5022525;28;20412;-59
2022/05/28 10:35:50;;;;;;;1.80;1.30;;;;;;;19.79;32.80;100425.69;5029200;28;20182;-60
2022/05/28 10:38:27;;;;;;;1.53;1.10;;;;;;;19.13;34.06;100427.06;5013027;28;20182;-60
2022/05/28 10:40:55;;;;;;;2.73;0.90;;;;;;;18.82;34.70;100434.03;5029287;28;20224;-58
2022/05/28 10:43:31;;;;;;;2.60;0.97;;;;;;;18.54;35.46;100411.13;5042351;28;20216;-60
2022/05/28 10:46:36;;;;;;;1.80;1.07;;;;;;;18.16;37.78;100416.84;5039496;28;20276;-64
2022/05/28 10:49:37;;;;;;;3.13;1.37;;;;;;;18.19;37.82;100414.03;5043777;28;20696;-59
2022/05/28 10:52:17;;;;;;;6.13;1.40;;;;;;;17.80;36.49;100406.69;5042357;28;20221;-57
2022/05/28 10:55:06;;;;;;;4.80;1.50;;;;;;;17.94;35.13;100412.56;5030646;28;20665;-59
2022/05/28 10:58:22;;;;;;;2.20;1.07;;;;;;;18.23;34.29;100403.22;5030251;28;20175;-59
2022/05/28 11:01:01;;;;;;;1.53;0.90;;;;;;;18.69;34.57;100400.34;4974445;28;20231;-59
2022/05/28 11:03:35;;;;;;;1.93;1.20;;;;;;;18.78;35.03;100401.34;4997199;28;20187;-67
2022/05/28 11:06:20;;;;;;;1.37;1.00;;;;;;;18.69;34.08;100405.56;4988676;28;20265;-65
2022/05/28 11:09:01;;;;;;;2.67;1.00;;;;;;;18.77;34.37;100395.31;4992728;28;20556;-60
2022/05/28 11:11:47;;;;;;;1.30;0.90;;;;;;;19.35;34.04;100393.94;4998539;28;20374;-59
2022/05/28 11:14:49;;;;;;;2.97;1.33;;;;;;;18.33;32.75;100397.25;5017059;28;20186;-59
2022/05/28 11:17:57;;;;;;;1.87;1.10;;;;;;;17.34;34.48;100397.31;5021283;28;20236;-59
2022/05/28 11:20:35;;;;;;;3.03;1.23;;;;;;;17.51;33.51;100401.19;5024034;28;20242;-59
2022/05/28 11:23:18;;;;;;;2.00;0.80;;;;;;;17.56;34.76;100384.28;5043717;28;20194;-59
2022/05/28 11:26:02;;;;;;;2.87;1.20;;;;;;;17.44;37.14;100393.06;5031436;28;20198;-58
2022/05/28 11:28:33;;;;;;;4.00;1.00;;;;;;;17.75;35.73;100394.03;4992146;28;20187;-59
2022/05/28 11:31:26;;;;;;;1.53;1.10;;;;;;;17.57;36.85;100390.31;4969991;28;20257;-58
2022/05/28 11:33:54;;;;;;;2.23;0.77;;;;;;;17.22;36.97;100380.91;4986460;28;20187;-57
2022/05/28 11:36:30;;;;;;;4.10;1.33;;;;;;;17.24;37.72;100387.66;5016683;28;20212;-58
2022/05/28 11:39:02;;;;;;;3.87;1.40;;;;;;;17.63;37.83;100383.81;5033726;28;20181;-58
2022/05/28 11:41:34;;;;;;;2.63;1.27;;;;;;;18.36;36.55;100374.38;5039877;28;20278;-60
2022/05/28 11:44:15;;;;;;;0.87;0.80;;;;;;;18.62;34.01;100380.97;5069223;28;20651;-59
2022/05/28 11:46:56;;;;;;;3.17;1.07;;;;;;;18.84;33.89;100369.56;5052901;28;20173;-59
2022/05/28 11:52:26;;;;;;;4.97;0.80;;;;;;;19.47;33.86;100351.13;5058342;28;20706;-61